sensor_id;sensor_type;location;lat;lon;timestamp;pressure;altitude;pressure_sealevel;temperature;humidity
9738;BME280;4908;47.446;13.900;2023-11-21T00:01:15;92340.00;;;4.79;100.00
9738;BME280;4908;47.446;13.900;2023-11-21T00:03:42;92327.06;;;4.74;100.00
9738;BME280;4908;47.446;13.900;2023-11-21T00:06:09;92322.25;;;4.57;100.00
9738;BME280;4908;47.446;13.900;2023-11-21T00:08:37;92323.72;;;4.54;100.00
9738;BME280;4908;47.446;13.900;2023-11-21T00:11:05;92318.69;;;4.72;100.00
9738;BME280;4908;47.446;13.900;2023-11-21T00:13:33;92325.75;;;4.87;100.00
9738;BME280;4908;47.446;13.900;2023-11-21T00:16:00;92318.75;;;4.75;100.00
9738;BME280;4908;47.446;13.900;2023-11-21T00:18:27;92322.59;;;4.78;100.00
9738;BME280;4908;47.446;13.900;2023-11-21T00:20:54;92322.03;;;4.69;100.00
9738;BME280;4908;47.446;13.900;2023-11-21T00:23:24;92322.44;;;4.93;100.00
9738;BME280;4908;47.446;13.900;2023-11-21T00:25:51;92324.47;;;4.77;100.00
9738;BME280;4908;47.446;13.900;2023-11-21T00:28:19;92327.00;;;4.70;100.00
9738;BME280;4908;47.446;13.900;2023-11-21T00:30:46;92332.25;;;4.67;100.00
9738;BME280;4908;47.446;13.900;2023-11-21T00:33:13;92318.28;;;4.70;100.00
9738;BME280;4908;47.446;13.900;2023-11-21T00:35:40;92317.97;;;4.75;100.00
9738;BME280;4908;47.446;13.900;2023-11-21T00:38:07;92320.97;;;4.73;100.00
9738;BME280;4908;47.446;13.900;2023-11-21T00:40:35;92320.34;;;4.80;100.00
9738;BME280;4908;47.446;13.900;2023-11-21T00:43:03;92317.19;;;4.74;100.00
9738;BME280;4908;47.446;13.900;2023-11-21T00:45:32;92329.34;;;4.75;100.00
9738;BME280;4908;47.446;13.900;2023-11-21T00:47:59;92333.19;;;4.78;100.00
9738;BME280;4908;47.446;13.900;2023-11-21T00:50:26;92330.13;;;4.76;100.00
9738;BME280;4908;47.446;13.900;2023-11-21T00:52:53;92338.50;;;4.78;100.00
9738;BME280;4908;47.446;13.900;2023-11-21T00:55:20;92333.94;;;4.78;100.00
9738;BME280;4908;47.446;13.900;2023-11-21T00:57:47;92335.47;;;4.79;100.00
9738;BME280;4908;47.446;13.900;2023-11-21T01:00:15;92325.16;;;4.97;100.00
9738;BME280;4908;47.446;13.900;2023-11-21T01:02:44;92339.50;;;4.96;100.00
9738;BME280;4908;47.446;13.900;2023-11-21T01:05:12;92331.59;;;4.73;100.00
9738;BME280;4908;47.446;13.900;2023-11-21T01:07:39;92326.72;;;4.52;100.00
9738;BME280;4908;47.446;13.900;2023-11-21T01:10:07;92313.16;;;4.57;100.00
9738;BME280;4908;47.446;13.900;2023-11-21T01:12:35;92310.31;;;4.70;100.00
9738;BME280;4908;47.446;13.900;2023-11-21T01:15:04;92316.50;;;4.77;100.00
9738;BME280;4908;47.446;13.900;2023-11-21T01:17:32;92314.91;;;4.73;100.00
9738;BME280;4908;47.446;13.900;2023-11-21T01:20:03;92309.91;;;4.94;100.00
9738;BME280;4908;47.446;13.900;2023-11-21T01:22:32;92302.94;;;4.82;100.00
9738;BME280;4908;47.446;13.900;2023-11-21T01:24:59;92299.13;;;4.80;100.00
9738;BME280;4908;47.446;13.900;2023-11-21T01:27:26;92305.06;;;4.73;100.00
9738;BME280;4908;47.446;13.900;2023-11-21T01:29:53;92304.72;;;4.75;100.00
9738;BME280;4908;47.446;13.900;2023-11-21T01:32:20;92299.03;;;4.76;100.00
9738;BME280;4908;47.446;13.900;2023-11-21T01:34:47;92299.81;;;4.77;100.00
9738;BME280;4908;47.446;13.900;2023-11-21T01:37:16;92302.88;;;4.79;100.00
9738;BME280;4908;47.446;13.900;2023-11-21T01:39:43;92301.06;;;4.83;100.00
9738;BME280;4908;47.446;13.900;2023-11-21T01:42:11;92298.41;;;4.83;100.00
9738;BME280;4908;47.446;13.900;2023-11-21T01:44:39;92301.88;;;4.87;100.00
9738;BME280;4908;47.446;13.900;2023-11-21T01:47:06;92299.22;;;4.87;100.00
9738;BME280;4908;47.446;13.900;2023-11-21T01:49:35;92297.28;;;4.84;100.00
9738;BME280;4908;47.446;13.900;2023-11-21T01:52:03;92301.47;;;4.85;100.00
9738;BME280;4908;47.446;13.900;2023-11-21T01:54:32;92306.00;;;4.84;100.00
9738;BME280;4908;47.446;13.900;2023-11-21T01:57:03;92298.81;;;4.85;100.00
9738;BME280;4908;47.446;13.900;2023-11-21T01:59:34;92296.88;;;4.82;100.00
9738;BME280;4908;47.446;13.900;2023-11-21T02:02:02;92288.94;;;4.82;100.00
9738;BME280;4908;47.446;13.900;2023-11-21T02:04:30;92287.44;;;4.84;100.00
9738;BME280;4908;47.446;13.900;2023-11-21T02:06:58;92288.56;;;4.83;100.00
9738;BME280;4908;47.446;13.900;2023-11-21T02:09:26;92292.41;;;4.86;100.00
9738;BME280;4908;47.446;13.900;2023-11-21T02:11:56;92292.41;;;4.86;100.00
9738;BME280;4908;47.446;13.900;2023-11-21T02:14:24;92294.72;;;4.91;100.00
9738;BME280;4908;47.446;13.900;2023-11-21T02:16:53;92296.97;;;4.89;100.00
9738;BME280;4908;47.446;13.900;2023-11-21T02:19:22;92287.97;;;4.71;100.00
9738;BME280;4908;47.446;13.900;2023-11-21T02:21:51;92301.50;;;4.88;100.00
9738;BME280;4908;47.446;13.900;2023-11-21T02:24:21;92293.91;;;4.87;100.00
9738;BME280;4908;47.446;13.900;2023-11-21T02:26:49;92297.75;;;4.89;100.00
9738;BME280;4908;47.446;13.900;2023-11-21T02:29:17;92306.34;;;4.83;100.00
9738;BME280;4908;47.446;13.900;2023-11-21T02:31:47;92303.50;;;4.95;100.00
9738;BME280;4908;47.446;13.900;2023-11-21T02:34:15;92301.22;;;4.93;100.00
9738;BME280;4908;47.446;13.900;2023-11-21T02:36:42;92296.47;;;4.80;100.00
9738;BME280;4908;47.446;13.900;2023-11-21T02:39:10;92302.84;;;4.75;100.00
9738;BME280;4908;47.446;13.900;2023-11-21T02:41:39;92295.31;;;4.54;100.00
9738;BME280;4908;47.446;13.900;2023-11-21T02:44:07;92299.44;;;4.52;100.00
9738;BME280;4908;47.446;13.900;2023-11-21T02:46:34;92303.34;;;4.58;100.00
9738;BME280;4908;47.446;13.900;2023-11-21T02:49:02;92295.00;;;4.60;100.00
9738;BME280;4908;47.446;13.900;2023-11-21T02:51:29;92298.06;;;4.62;100.00
9738;BME280;4908;47.446;13.900;2023-11-21T02:53:56;92291.22;;;4.61;100.00
9738;BME280;4908;47.446;13.900;2023-11-21T02:56:26;92287.66;;;4.49;100.00
9738;BME280;4908;47.446;13.900;2023-11-21T02:58:56;92290.44;;;4.57;100.00
9738;BME280;4908;47.446;13.900;2023-11-21T03:01:24;92288.16;;;4.58;100.00
9738;BME280;4908;47.446;13.900;2023-11-21T03:03:51;92283.28;;;4.61;100.00
9738;BME280;4908;47.446;13.900;2023-11-21T03:06:18;92281.72;;;4.56;100.00
9738;BME280;4908;47.446;13.900;2023-11-21T03:08:46;92276.91;;;4.65;100.00
9738;BME280;4908;47.446;13.900;2023-11-21T03:11:14;92285.75;;;4.73;100.00
9738;BME280;4908;47.446;13.900;2023-11-21T03:13:41;92270.84;;;4.65;100.00
9738;BME280;4908;47.446;13.900;2023-11-21T03:16:10;92271.16;;;4.60;100.00
9738;BME280;4908;47.446;13.900;2023-11-21T03:18:38;92280.44;;;4.73;100.00
9738;BME280;4908;47.446;13.900;2023-11-21T03:21:06;92276.19;;;4.42;100.00
9738;BME280;4908;47.446;13.900;2023-11-21T03:23:34;92272.75;;;4.41;100.00
9738;BME280;4908;47.446;13.900;2023-11-21T03:26:01;92258.50;;;4.49;100.00
9738;BME280;4908;47.446;13.900;2023-11-21T03:28:29;92263.75;;;4.46;100.00
9738;BME280;4908;47.446;13.900;2023-11-21T03:30:56;92266.47;;;4.27;100.00
9738;BME280;4908;47.446;13.900;2023-11-21T03:33:25;92263.78;;;4.23;100.00
9738;BME280;4908;47.446;13.900;2023-11-21T03:35:52;92251.84;;;4.36;100.00
9738;BME280;4908;47.446;13.900;2023-11-21T03:38:20;92254.56;;;4.40;100.00
9738;BME280;4908;47.446;13.900;2023-11-21T03:40:47;92252.28;;;4.38;100.00
9738;BME280;4908;47.446;13.900;2023-11-21T03:43:14;92261.81;;;4.20;100.00
9738;BME280;4908;47.446;13.900;2023-11-21T03:45:42;92255.69;;;4.39;100.00
9738;BME280;4908;47.446;13.900;2023-11-21T03:48:09;92258.22;;;4.09;100.00
9738;BME280;4908;47.446;13.900;2023-11-21T03:50:40;92263.69;;;3.97;100.00
9738;BME280;4908;47.446;13.900;2023-11-21T03:53:07;92271.34;;;4.02;100.00
9738;BME280;4908;47.446;13.900;2023-11-21T03:55:34;92261.81;;;4.20;100.00
9738;BME280;4908;47.446;13.900;2023-11-21T03:58:01;92256.69;;;4.08;100.00
9738;BME280;4908;47.446;13.900;2023-11-21T04:00:28;92249.25;;;3.95;100.00
9738;BME280;4908;47.446;13.900;2023-11-21T04:02:56;92251.78;;;3.88;100.00
9738;BME280;4908;47.446;13.900;2023-11-21T04:05:23;92249.66;;;3.74;100.00
9738;BME280;4908;47.446;13.900;2023-11-21T04:07:51;92242.91;;;3.77;100.00
9738;BME280;4908;47.446;13.900;2023-11-21T04:10:19;92243.38;;;4.05;100.00
9738;BME280;4908;47.446;13.900;2023-11-21T04:12:46;92245.56;;;3.99;100.00
9738;BME280;4908;47.446;13.900;2023-11-21T04:15:14;92250.97;;;4.06;100.00
9738;BME280;4908;47.446;13.900;2023-11-21T04:17:41;92249.03;;;4.03;100.00
9738;BME280;4908;47.446;13.900;2023-11-21T04:20:09;92259.16;;;3.98;100.00
9738;BME280;4908;47.446;13.900;2023-11-21T04:22:37;92255.75;;;3.97;100.00
9738;BME280;4908;47.446;13.900;2023-11-21T04:25:09;92259.94;;;3.98;100.00
9738;BME280;4908;47.446;13.900;2023-11-21T04:27:38;92253.19;;;4.04;100.00
9738;BME280;4908;47.446;13.900;2023-11-21T04:30:06;92251.06;;;4.10;100.00
9738;BME280;4908;47.446;13.900;2023-11-21T04:32:35;92244.69;;;4.37;100.00
9738;BME280;4908;47.446;13.900;2023-11-21T04:35:03;92251.44;;;4.34;100.00
9738;BME280;4908;47.446;13.900;2023-11-21T04:37:30;92255.00;;;4.19;100.00
9738;BME280;4908;47.446;13.900;2023-11-21T04:39:57;92246.63;;;4.17;100.00
9738;BME280;4908;47.446;13.900;2023-11-21T04:42:26;92245.00;;;4.35;100.00
9738;BME280;4908;47.446;13.900;2023-11-21T04:44:54;92255.44;;;4.47;100.00
9738;BME280;4908;47.446;13.900;2023-11-21T04:47:21;92254.75;;;4.50;100.00
9738;BME280;4908;47.446;13.900;2023-11-21T04:49:49;92250.31;;;4.35;100.00
9738;BME280;4908;47.446;13.900;2023-11-21T04:52:16;92247.56;;;4.28;100.00
9738;BME280;4908;47.446;13.900;2023-11-21T04:54:43;92252.13;;;4.31;100.00
9738;BME280;4908;47.446;13.900;2023-11-21T04:57:11;92250.25;;;4.32;100.00
9738;BME280;4908;47.446;13.900;2023-11-21T04:59:39;92257.09;;;4.10;100.00
9738;BME280;4908;47.446;13.900;2023-11-21T05:02:07;92261.66;;;4.10;100.00
9738;BME280;4908;47.446;13.900;2023-11-21T05:04:34;92254.84;;;4.12;100.00
9738;BME280;4908;47.446;13.900;2023-11-21T05:07:01;92253.50;;;4.22;100.00
9738;BME280;4908;47.446;13.900;2023-11-21T05:09:28;92257.28;;;4.21;100.00
9738;BME280;4908;47.446;13.900;2023-11-21T05:11:57;92254.16;;;4.15;100.00
9738;BME280;4908;47.446;13.900;2023-11-21T05:14:25;92258.28;;;4.13;100.00
9738;BME280;4908;47.446;13.900;2023-11-21T05:16:54;92248.09;;;4.15;100.00
9738;BME280;4908;47.446;13.900;2023-11-21T05:19:21;92249.63;;;4.16;100.00
9738;BME280;4908;47.446;13.900;2023-11-21T05:21:49;92252.56;;;4.11;100.00
9738;BME280;4908;47.446;13.900;2023-11-21T05:24:16;92258.75;;;4.18;100.00
9738;BME280;4908;47.446;13.900;2023-11-21T05:26:43;92254.13;;;4.12;100.00
9738;BME280;4908;47.446;13.900;2023-11-21T05:29:10;92259.06;;;4.13;100.00
9738;BME280;4908;47.446;13.900;2023-11-21T05:31:37;92261.94;;;4.27;100.00
9738;BME280;4908;47.446;13.900;2023-11-21T05:34:05;92254.59;;;4.17;100.00
9738;BME280;4908;47.446;13.900;2023-11-21T05:36:32;92250.78;;;4.18;100.00
9738;BME280;4908;47.446;13.900;2023-11-21T05:39:00;92247.31;;;4.14;100.00
9738;BME280;4908;47.446;13.900;2023-11-21T05:41:28;92251.41;;;4.31;100.00
9738;BME280;4908;47.446;13.900;2023-11-21T05:43:55;92255.81;;;4.23;100.00
9738;BME280;4908;47.446;13.900;2023-11-21T05:46:22;92248.88;;;4.15;100.00
9738;BME280;4908;47.446;13.900;2023-11-21T05:48:49;92246.81;;;4.05;100.00
9738;BME280;4908;47.446;13.900;2023-11-21T05:51:18;92249.25;;;3.95;100.00
9738;BME280;4908;47.446;13.900;2023-11-21T05:53:45;92254.69;;;4.02;100.00
9738;BME280;4908;47.446;13.900;2023-11-21T05:56:12;92258.38;;;3.97;100.00
9738;BME280;4908;47.446;13.900;2023-11-21T05:58:40;92260.69;;;3.99;100.00
9738;BME280;4908;47.446;13.900;2023-11-21T06:01:07;92256.94;;;4.00;100.00
9738;BME280;4908;47.446;13.900;2023-11-21T06:03:34;92256.00;;;4.11;100.00
9738;BME280;4908;47.446;13.900;2023-11-21T06:06:02;92252.88;;;4.28;100.00
9738;BME280;4908;47.446;13.900;2023-11-21T06:08:31;92256.47;;;4.17;100.00
9738;BME280;4908;47.446;13.900;2023-11-21T06:10:58;92266.34;;;3.97;100.00
9738;BME280;4908;47.446;13.900;2023-11-21T06:13:25;92260.72;;;4.02;100.00
9738;BME280;4908;47.446;13.900;2023-11-21T06:15:52;92265.00;;;4.07;100.00
9738;BME280;4908;47.446;13.900;2023-11-21T06:18:19;92264.00;;;4.15;100.00
9738;BME280;4908;47.446;13.900;2023-11-21T06:20:46;92265.34;;;4.05;100.00
9738;BME280;4908;47.446;13.900;2023-11-21T06:23:13;92268.97;;;3.97;100.00
9738;BME280;4908;47.446;13.900;2023-11-21T06:25:43;92269.69;;;3.94;100.00
9738;BME280;4908;47.446;13.900;2023-11-21T06:28:10;92276.13;;;3.74;100.00
9738;BME280;4908;47.446;13.900;2023-11-21T06:30:37;92274.94;;;3.72;100.00
9738;BME280;4908;47.446;13.900;2023-11-21T06:33:04;92273.91;;;3.76;100.00
9738;BME280;4908;47.446;13.900;2023-11-21T06:35:32;92281.56;;;3.81;100.00
9738;BME280;4908;47.446;13.900;2023-11-21T06:38:00;92277.09;;;3.85;100.00
9738;BME280;4908;47.446;13.900;2023-11-21T06:40:28;92273.34;;;3.86;100.00
9738;BME280;4908;47.446;13.900;2023-11-21T06:42:56;92273.34;;;3.86;100.00
9738;BME280;4908;47.446;13.900;2023-11-21T06:45:24;92271.94;;;3.92;100.00
9738;BME280;4908;47.446;13.900;2023-11-21T06:47:51;92280.63;;;3.93;100.00
9738;BME280;4908;47.446;13.900;2023-11-21T06:50:18;92289.69;;;3.92;100.00
9738;BME280;4908;47.446;13.900;2023-11-21T06:52:45;92289.34;;;3.93;100.00
9738;BME280;4908;47.446;13.900;2023-11-21T06:55:12;92296.31;;;4.01;100.00
9738;BME280;4908;47.446;13.900;2023-11-21T06:57:39;92287.63;;;4.04;100.00
9738;BME280;4908;47.446;13.900;2023-11-21T07:00:09;92283.00;;;4.20;100.00
9738;BME280;4908;47.446;13.900;2023-11-21T07:02:37;92285.13;;;4.11;100.00
9738;BME280;4908;47.446;13.900;2023-11-21T07:05:04;92290.38;;;4.08;100.00
9738;BME280;4908;47.446;13.900;2023-11-21T07:07:31;92290.53;;;4.18;100.00
9738;BME280;4908;47.446;13.900;2023-11-21T07:10:01;92286.91;;;4.26;100.00
9738;BME280;4908;47.446;13.900;2023-11-21T07:12:29;92280.78;;;4.22;100.00
9738;BME280;4908;47.446;13.900;2023-11-21T07:14:56;92284.31;;;4.30;100.00
9738;BME280;4908;47.446;13.900;2023-11-21T07:17:25;92283.19;;;4.31;100.00
9738;BME280;4908;47.446;13.900;2023-11-21T07:19:52;92294.00;;;4.45;100.00
9738;BME280;4908;47.446;13.900;2023-11-21T07:22:20;92288.97;;;4.36;100.00
9738;BME280;4908;47.446;13.900;2023-11-21T07:24:48;92288.38;;;4.46;100.00
9738;BME280;4908;47.446;13.900;2023-11-21T07:27:17;92291.34;;;4.45;100.00
9738;BME280;4908;47.446;13.900;2023-11-21T07:29:44;92294.00;;;4.45;100.00
9738;BME280;4908;47.446;13.900;2023-11-21T07:32:11;92292.38;;;4.60;100.00
9738;BME280;4908;47.446;13.900;2023-11-21T07:34:40;92290.16;;;4.39;100.00
9738;BME280;4908;47.446;13.900;2023-11-21T07:37:08;92296.09;;;4.32;100.00
9738;BME280;4908;47.446;13.900;2023-11-21T07:39:35;92289.31;;;4.35;100.00
9738;BME280;4908;47.446;13.900;2023-11-21T07:42:03;92286.38;;;4.40;100.00
9738;BME280;4908;47.446;13.900;2023-11-21T07:44:30;92286.47;;;4.47;100.00
9738;BME280;4908;47.446;13.900;2023-11-21T07:46:57;92297.84;;;4.47;100.00
9738;BME280;4908;47.446;13.900;2023-11-21T07:49:24;92289.66;;;4.56;100.00
9738;BME280;4908;47.446;13.900;2023-11-21T07:51:53;92284.59;;;4.70;100.00
9738;BME280;4908;47.446;13.900;2023-11-21T07:54:20;92293.13;;;4.86;100.00
9738;BME280;4908;47.446;13.900;2023-11-21T07:56:48;92300.84;;;4.95;100.00
9738;BME280;4908;47.446;13.900;2023-11-21T07:59:15;92295.44;;;4.88;100.00
9738;BME280;4908;47.446;13.900;2023-11-21T08:01:43;92286.41;;;4.92;100.00
9738;BME280;4908;47.446;13.900;2023-11-21T08:04:11;92286.56;;;4.77;100.00
9738;BME280;4908;47.446;13.900;2023-11-21T08:06:38;92283.63;;;4.82;100.00
9738;BME280;4908;47.446;13.900;2023-11-21T08:09:08;92280.34;;;4.92;100.00
9738;BME280;4908;47.446;13.900;2023-11-21T08:11:38;92272.78;;;4.94;100.00
9738;BME280;4908;47.446;13.900;2023-11-21T08:14:05;92274.75;;;5.26;100.00
9738;BME280;4908;47.446;13.900;2023-11-21T08:16:32;92275.38;;;5.16;100.00
9738;BME280;4908;47.446;13.900;2023-11-21T08:18:59;92289.69;;;5.08;100.00
9738;BME280;4908;47.446;13.900;2023-11-21T08:21:26;92296.41;;;5.02;100.00
9738;BME280;4908;47.446;13.900;2023-11-21T08:23:54;92281.59;;;5.01;100.00
9738;BME280;4908;47.446;13.900;2023-11-21T08:26:23;92290.44;;;5.09;100.00
9738;BME280;4908;47.446;13.900;2023-11-21T08:28:50;92281.72;;;5.08;100.00
9738;BME280;4908;47.446;13.900;2023-11-21T08:31:23;92280.69;;;4.90;100.00
9738;BME280;4908;47.446;13.900;2023-11-21T08:33:51;92284.72;;;4.81;100.00
9738;BME280;4908;47.446;13.900;2023-11-21T08:36:18;92285.22;;;4.90;100.00
9738;BME280;4908;47.446;13.900;2023-11-21T08:38:46;92293.41;;;5.04;100.00
9738;BME280;4908;47.446;13.900;2023-11-21T08:41:14;92288.66;;;5.16;100.00
9738;BME280;4908;47.446;13.900;2023-11-21T08:43:43;92288.78;;;5.27;100.00
9738;BME280;4908;47.446;13.900;2023-11-21T08:46:10;92292.28;;;5.34;100.00
9738;BME280;4908;47.446;13.900;2023-11-21T08:48:37;92291.28;;;5.46;100.00
9738;BME280;4908;47.446;13.900;2023-11-21T08:51:05;92291.03;;;5.55;100.00
9738;BME280;4908;47.446;13.900;2023-11-21T08:53:32;92293.03;;;5.61;100.00
9738;BME280;4908;47.446;13.900;2023-11-21T08:55:59;92281.28;;;5.66;100.00
9738;BME280;4908;47.446;13.900;2023-11-21T08:58:26;92285.19;;;5.75;100.00
9738;BME280;4908;47.446;13.900;2023-11-21T09:00:55;92286.28;;;5.67;100.00
9738;BME280;4908;47.446;13.900;2023-11-21T09:03:22;92293.25;;;5.49;100.00
9738;BME280;4908;47.446;13.900;2023-11-21T09:05:49;92293.25;;;5.49;100.00
9738;BME280;4908;47.446;13.900;2023-11-21T09:08:16;92290.16;;;5.43;100.00
9738;BME280;4908;47.446;13.900;2023-11-21T09:10:43;92289.00;;;5.74;100.00
9738;BME280;4908;47.446;13.900;2023-11-21T09:13:12;92287.84;;;5.75;100.00
9738;BME280;4908;47.446;13.900;2023-11-21T09:15:43;92293.16;;;5.75;100.00
9738;BME280;4908;47.446;13.900;2023-11-21T09:18:13;92293.25;;;5.82;100.00
9738;BME280;4908;47.446;13.900;2023-11-21T09:20:40;92289.63;;;5.64;100.00
9738;BME280;4908;47.446;13.900;2023-11-21T09:23:08;92291.25;;;5.72;100.00
9738;BME280;4908;47.446;13.900;2023-11-21T09:25:35;92288.13;;;5.63;100.00
9738;BME280;4908;47.446;13.900;2023-11-21T09:28:03;92296.97;;;5.74;100.00
9738;BME280;4908;47.446;13.900;2023-11-21T09:30:33;92297.88;;;5.85;100.00
9738;BME280;4908;47.446;13.900;2023-11-21T09:33:00;92287.75;;;5.94;100.00
9738;BME280;4908;47.446;13.900;2023-11-21T09:35:29;92293.94;;;6.05;100.00
9738;BME280;4908;47.446;13.900;2023-11-21T09:37:56;92295.53;;;6.13;100.00
9738;BME280;4908;47.446;13.900;2023-11-21T09:40:23;92290.22;;;6.13;100.00
9738;BME280;4908;47.446;13.900;2023-11-21T09:42:54;92282.25;;;6.13;100.00
9738;BME280;4908;47.446;13.900;2023-11-21T09:45:25;92289.16;;;6.21;100.00
9738;BME280;4908;47.446;13.900;2023-11-21T09:47:53;92287.72;;;6.31;100.00
9738;BME280;4908;47.446;13.900;2023-11-21T09:50:21;92291.94;;;6.35;100.00
9738;BME280;4908;47.446;13.900;2023-11-21T09:52:55;92273.41;;;6.43;100.00
9738;BME280;4908;47.446;13.900;2023-11-21T09:55:26;92284.72;;;6.36;100.00
9738;BME280;4908;47.446;13.900;2023-11-21T09:57:56;92280.28;;;6.10;100.00
9738;BME280;4908;47.446;13.900;2023-11-21T10:00:23;92280.47;;;5.91;100.00
9738;BME280;4908;47.446;13.900;2023-11-21T10:02:50;92277.78;;;5.88;100.00
9738;BME280;4908;47.446;13.900;2023-11-21T10:05:19;92285.53;;;6.00;100.00
9738;BME280;4908;47.446;13.900;2023-11-21T10:07:48;92274.97;;;6.10;100.00
9738;BME280;4908;47.446;13.900;2023-11-21T10:10:18;92280.41;;;6.21;100.00
9738;BME280;4908;47.446;13.900;2023-11-21T10:12:49;92274.50;;;6.42;100.00
9738;BME280;4908;47.446;13.900;2023-11-21T10:15:21;92268.50;;;6.48;100.00
9738;BME280;4908;47.446;13.900;2023-11-21T10:17:50;92273.44;;;6.50;100.00
9738;BME280;4908;47.446;13.900;2023-11-21T10:20:19;92271.84;;;6.42;100.00
9738;BME280;4908;47.446;13.900;2023-11-21T10:22:46;92279.09;;;6.41;100.00
9738;BME280;4908;47.446;13.900;2023-11-21T10:25:13;92270.75;;;6.46;100.00
9738;BME280;4908;47.446;13.900;2023-11-21T10:27:42;92275.72;;;6.48;100.00
9738;BME280;4908;47.446;13.900;2023-11-21T10:30:10;92271.06;;;6.38;100.00
9738;BME280;4908;47.446;13.900;2023-11-21T10:32:38;92277.53;;;6.37;100.00
9738;BME280;4908;47.446;13.900;2023-11-21T10:35:06;92279.13;;;6.48;100.00
9738;BME280;4908;47.446;13.900;2023-11-21T10:37:35;92276.22;;;6.64;100.00
9738;BME280;4908;47.446;13.900;2023-11-21T10:40:06;92274.75;;;6.70;100.00
9738;BME280;4908;47.446;13.900;2023-11-21T10:42:37;92279.31;;;6.73;100.00
9738;BME280;4908;47.446;13.900;2023-11-21T10:45:06;92275.56;;;6.74;100.00
9738;BME280;4908;47.446;13.900;2023-11-21T10:47:38;92284.72;;;6.80;100.00
9738;BME280;4908;47.446;13.900;2023-11-21T10:50:07;92274.88;;;6.84;100.00
9738;BME280;4908;47.446;13.900;2023-11-21T10:52:36;92277.13;;;6.82;100.00
9738;BME280;4908;47.446;13.900;2023-11-21T10:55:16;92284.19;;;6.60;100.00
9738;BME280;4908;47.446;13.900;2023-11-21T10:57:45;92278.56;;;6.72;100.00
9738;BME280;4908;47.446;13.900;2023-11-21T11:00:17;92279.03;;;6.81;100.00
9738;BME280;4908;47.446;13.900;2023-11-21T11:02:49;92282.47;;;6.82;100.00
9738;BME280;4908;47.446;13.900;2023-11-21T11:05:19;92274.88;;;6.87;100.00
9738;BME280;4908;47.446;13.900;2023-11-21T11:07:48;92286.25;;;6.81;100.00
9738;BME280;4908;47.446;13.900;2023-11-21T11:10:18;92282.38;;;6.75;100.00
9738;BME280;4908;47.446;13.900;2023-11-21T11:12:47;92285.31;;;6.59;100.00
9738;BME280;4908;47.446;13.900;2023-11-21T11:15:16;92291.13;;;6.72;100.00
9738;BME280;4908;47.446;13.900;2023-11-21T11:17:45;92286.19;;;6.74;100.00
9738;BME280;4908;47.446;13.900;2023-11-21T11:20:16;92283.25;;;6.86;100.00
9738;BME280;4908;47.446;13.900;2023-11-21T11:22:50;92279.09;;;6.92;100.00
9738;BME280;4908;47.446;13.900;2023-11-21T11:25:30;92277.94;;;6.86;100.00
9738;BME280;4908;47.446;13.900;2023-11-21T11:28:06;92281.72;;;6.85;100.00
9738;BME280;4908;47.446;13.900;2023-11-21T11:30:45;92279.69;;;6.68;100.00
9738;BME280;4908;47.446;13.900;2023-11-21T11:33:24;92284.66;;;6.73;100.00
9738;BME280;4908;47.446;13.900;2023-11-21T11:35:59;92284.00;;;6.90;100.00
9738;BME280;4908;47.446;13.900;2023-11-21T11:38:32;92283.28;;;6.93;100.00
9738;BME280;4908;47.446;13.900;2023-11-21T11:41:02;92284.88;;;7.01;100.00
9738;BME280;4908;47.446;13.900;2023-11-21T11:43:29;92278.84;;;7.11;100.00
9738;BME280;4908;47.446;13.900;2023-11-21T11:46:03;92276.22;;;7.18;100.00
9738;BME280;4908;47.446;13.900;2023-11-21T11:48:34;92280.47;;;7.26;100.00
9738;BME280;4908;47.446;13.900;2023-11-21T11:51:04;92272.09;;;7.31;100.00
9738;BME280;4908;47.446;13.900;2023-11-21T11:53:38;92275.22;;;7.40;100.00
9738;BME280;4908;47.446;13.900;2023-11-21T11:56:24;92271.47;;;7.52;100.00
9738;BME280;4908;47.446;13.900;2023-11-21T11:58:53;92272.94;;;7.42;100.00
9738;BME280;4908;47.446;13.900;2023-11-21T12:01:23;92274.47;;;7.43;100.00
9738;BME280;4908;47.446;13.900;2023-11-21T12:04:24;92274.50;;;7.50;100.00
9738;BME280;4908;47.446;13.900;2023-11-21T12:07:00;92274.53;;;7.57;100.00
9738;BME280;4908;47.446;13.900;2023-11-21T12:09:28;92270.38;;;7.67;100.00
9738;BME280;4908;47.446;13.900;2023-11-21T12:11:56;92268.50;;;7.74;100.00
9738;BME280;4908;47.446;13.900;2023-11-21T12:14:23;92272.28;;;7.70;100.00
9738;BME280;4908;47.446;13.900;2023-11-21T12:16:52;92275.41;;;7.82;100.00
9738;BME280;4908;47.446;13.900;2023-11-21T12:19:20;92264.75;;;7.86;100.00
9738;BME280;4908;47.446;13.900;2023-11-21T12:21:49;92271.25;;;7.92;100.00
9738;BME280;4908;47.446;13.900;2023-11-21T12:24:16;92276.22;;;8.00;100.00
9738;BME280;4908;47.446;13.900;2023-11-21T12:26:43;92278.50;;;7.98;100.00
9738;BME280;4908;47.446;13.900;2023-11-21T12:29:11;92276.50;;;7.74;100.00
9738;BME280;4908;47.446;13.900;2023-11-21T12:31:38;92274.16;;;7.55;100.00
9738;BME280;4908;47.446;13.900;2023-11-21T12:34:08;92273.75;;;7.53;100.00
9738;BME280;4908;47.446;13.900;2023-11-21T12:36:37;92277.44;;;7.31;100.00
9738;BME280;4908;47.446;13.900;2023-11-21T12:39:04;92278.31;;;7.53;100.00
9738;BME280;4908;47.446;13.900;2023-11-21T12:41:34;92270.78;;;7.65;100.00
9738;BME280;4908;47.446;13.900;2023-11-21T12:44:01;92280.66;;;7.68;100.00
9738;BME280;4908;47.446;13.900;2023-11-21T12:46:28;92271.88;;;7.54;100.00
9738;BME280;4908;47.446;13.900;2023-11-21T12:48:58;92267.75;;;7.77;100.00
9738;BME280;4908;47.446;13.900;2023-11-21T12:51:27;92268.13;;;7.76;100.00
9738;BME280;4908;47.446;13.900;2023-11-21T12:53:55;92264.66;;;7.61;100.00
9738;BME280;4908;47.446;13.900;2023-11-21T12:56:24;92268.06;;;7.58;100.00
9738;BME280;4908;47.446;13.900;2023-11-21T12:58:54;92268.06;;;7.58;100.00
9738;BME280;4908;47.446;13.900;2023-11-21T13:01:25;92263.13;;;7.60;100.00
9738;BME280;4908;47.446;13.900;2023-11-21T13:03:54;92275.66;;;7.60;100.00
9738;BME280;4908;47.446;13.900;2023-11-21T13:06:21;92275.31;;;7.61;100.00
9738;BME280;4908;47.446;13.900;2023-11-21T13:08:52;92269.59;;;7.56;100.00
9738;BME280;4908;47.446;13.900;2023-11-21T13:11:19;92273.41;;;7.62;100.00
9738;BME280;4908;47.446;13.900;2023-11-21T13:13:46;92269.22;;;7.61;100.00
9738;BME280;4908;47.446;13.900;2023-11-21T13:16:15;92271.88;;;7.61;100.00